createdAt,value
2023-05-08T00:01:23.191Z,19.23
2023-05-08T00:03:52.874Z,15.65
2023-05-08T00:06:21.384Z,14.10
2023-05-08T00:08:49.629Z,15.00
2023-05-08T00:11:18.279Z,10.43
2023-05-08T00:13:46.651Z,14.15
2023-05-08T00:16:15.239Z,21.52
2023-05-08T00:18:43.143Z,14.23
2023-05-08T00:21:11.794Z,15.50
2023-05-08T00:23:39.570Z,12.50
2023-05-08T00:26:07.786Z,64.40
2023-05-08T00:28:35.649Z,77.18
2023-05-08T00:31:04.184Z,25.60
2023-05-08T00:33:32.634Z,14.02
2023-05-08T00:36:02.091Z,15.52
2023-05-08T00:38:36.686Z,13.05
2023-05-08T00:41:05.121Z,17.05
2023-05-08T00:43:33.891Z,17.95
2023-05-08T00:46:02.538Z,11.77
2023-05-08T00:48:34.200Z,12.75
2023-05-08T00:51:06.485Z,8.63
2023-05-08T00:53:37.549Z,16.00
2023-05-08T00:56:07.186Z,12.18
2023-05-08T00:58:35.735Z,12.55
2023-05-08T01:01:04.689Z,10.90
2023-05-08T01:03:34.179Z,9.02
2023-05-08T01:06:04.004Z,13.57
2023-05-08T01:08:32.706Z,10.38
2023-05-08T01:11:07.885Z,11.45
2023-05-08T01:13:39.150Z,8.45
2023-05-08T01:16:16.134Z,12.77
2023-05-08T01:18:52.548Z,9.68
2023-05-08T01:21:38.489Z,8.60
2023-05-08T01:24:25.610Z,10.13
2023-05-08T01:27:03.507Z,21.02
2023-05-08T01:29:50.544Z,28.42
2023-05-08T01:32:31.474Z,10.77
2023-05-08T01:35:21.122Z,11.27
2023-05-08T01:37:56.576Z,10.00
2023-05-08T01:40:43.775Z,12.27
2023-05-08T01:43:19.524Z,11.13
2023-05-08T01:45:49.429Z,15.35
2023-05-08T01:48:19.554Z,17.42
2023-05-08T01:50:48.488Z,11.43
2023-05-08T01:53:25.711Z,12.02
2023-05-08T01:55:56.862Z,11.45
2023-05-08T01:58:26.537Z,14.43
2023-05-08T02:00:55.862Z,10.35
2023-05-08T02:03:25.750Z,9.30
2023-05-08T02:05:55.746Z,23.13
2023-05-08T02:08:25.298Z,17.98
2023-05-08T02:10:54.680Z,17.90
2023-05-08T02:13:23.865Z,15.85
2023-05-08T02:15:54.192Z,12.68
2023-05-08T02:18:24.941Z,20.73
2023-05-08T02:20:54.935Z,13.50
2023-05-08T02:23:25.688Z,11.05
2023-05-08T02:25:54.618Z,15.20
2023-05-08T02:28:24.201Z,15.07
2023-05-08T02:30:52.884Z,15.40
2023-05-08T02:33:22.722Z,17.52
2023-05-08T02:35:52.369Z,15.70
2023-05-08T02:38:22.465Z,15.32
2023-05-08T02:40:54.122Z,9.55
2023-05-08T02:43:24.042Z,15.00
2023-05-08T02:45:56.305Z,13.60
2023-05-08T02:48:45.172Z,13.07
2023-05-08T02:51:31.815Z,14.55
2023-05-08T02:54:05.707Z,36.55
2023-05-08T02:56:33.937Z,17.58
2023-05-08T02:59:15.362Z,16.98
2023-05-08T03:02:02.265Z,18.55
2023-05-08T03:04:33.115Z,25.58
2023-05-08T03:07:02.337Z,18.75
2023-05-08T03:09:40.343Z,18.00
2023-05-08T03:12:12.232Z,18.15
2023-05-08T03:14:44.060Z,15.15
2023-05-08T03:17:13.977Z,92.22
2023-05-08T03:19:43.514Z,18.52
2023-05-08T03:22:11.828Z,17.75
2023-05-08T03:24:41.377Z,14.35
2023-05-08T03:27:10.061Z,28.55
2023-05-08T03:29:39.905Z,31.27
2023-05-08T03:32:08.774Z,51.05
2023-05-08T03:34:40.284Z,38.58
2023-05-08T03:37:09.038Z,33.95
2023-05-08T03:39:37.795Z,25.48
2023-05-08T03:42:06.554Z,18.58
2023-05-08T03:44:35.335Z,18.52
2023-05-08T03:47:04.242Z,39.38
2023-05-08T03:49:32.908Z,28.98
2023-05-08T03:52:03.200Z,43.60
2023-05-08T03:54:32.674Z,20.85
2023-05-08T03:57:01.652Z,14.23
2023-05-08T03:59:33.373Z,17.90
2023-05-08T04:02:18.436Z,11.45
2023-05-08T04:04:52.915Z,23.60
2023-05-08T04:07:48.015Z,15.18
2023-05-08T04:10:25.394Z,13.63
2023-05-08T04:13:13.585Z,7.30
2023-05-08T04:15:52.981Z,8.10
2023-05-08T04:18:28.334Z,10.00
2023-05-08T04:20:58.967Z,6.33
2023-05-08T04:23:29.959Z,12.35
2023-05-08T04:26:00.052Z,74.68
2023-05-08T04:28:28.530Z,6.80
2023-05-08T04:30:58.231Z,8.85
2023-05-08T04:33:26.567Z,15.95
2023-05-08T04:35:55.493Z,20.65
2023-05-08T04:38:23.589Z,5.47
2023-05-08T04:40:51.789Z,29.17
2023-05-08T04:43:19.900Z,11.13
2023-05-08T04:45:48.557Z,59.30
2023-05-08T04:48:16.539Z,14.30
2023-05-08T04:50:45.059Z,22.15
2023-05-08T04:53:13.255Z,6.00
2023-05-08T04:55:42.035Z,22.52
2023-05-08T04:58:11.360Z,28.33
2023-05-08T05:00:40.069Z,55.90
2023-05-08T05:03:08.064Z,11.23
2023-05-08T05:05:38.767Z,15.73
2023-05-08T05:08:07.302Z,104.13
2023-05-08T05:10:35.571Z,7.43
2023-05-08T05:13:03.634Z,8.05
2023-05-08T05:15:32.572Z,24.60
2023-05-08T05:18:01.091Z,11.85
2023-05-08T05:20:30.938Z,11.43
2023-05-08T05:22:58.993Z,21.48
2023-05-08T05:25:27.458Z,15.57
2023-05-08T05:27:55.547Z,5.63
2023-05-08T05:30:24.035Z,12.57
2023-05-08T05:32:52.184Z,5.93
2023-05-08T05:35:20.535Z,6.20
2023-05-08T05:37:48.534Z,30.67
2023-05-08T05:40:17.102Z,13.88
2023-05-08T05:42:49.997Z,6.30
2023-05-08T05:45:19.589Z,15.68
2023-05-08T05:47:50.637Z,6.45
2023-05-08T05:50:21.738Z,14.93
2023-05-08T05:52:50.451Z,17.15
2023-05-08T05:55:19.125Z,33.92
2023-05-08T05:57:48.511Z,34.13
2023-05-08T06:00:17.900Z,5.07
2023-05-08T06:02:52.708Z,20.75
2023-05-08T06:05:21.137Z,18.33
2023-05-08T06:07:49.490Z,4.90
2023-05-08T06:10:18.025Z,32.63
2023-05-08T06:12:46.314Z,8.75
2023-05-08T06:15:15.568Z,6.10
2023-05-08T06:17:46.270Z,7.20
2023-05-08T06:20:14.883Z,47.42
2023-05-08T06:22:42.930Z,5.63
2023-05-08T06:25:11.488Z,6.15
2023-05-08T06:27:39.758Z,13.13
2023-05-08T06:30:08.807Z,20.13
2023-05-08T06:32:37.237Z,6.45
2023-05-08T06:35:05.826Z,4.25
2023-05-08T06:37:34.066Z,28.52
2023-05-08T06:40:11.583Z,23.90
2023-05-08T06:42:41.416Z,35.38
2023-05-08T06:45:10.736Z,9.00
2023-05-08T06:47:39.046Z,18.05
2023-05-08T06:50:07.999Z,3.95
2023-05-08T06:52:36.388Z,12.70
2023-05-08T06:55:04.965Z,24.55
2023-05-08T06:57:32.806Z,9.57
2023-05-08T07:00:00.941Z,9.63
2023-05-08T07:02:29.439Z,3.15
2023-05-08T07:04:58.101Z,7.70
2023-05-08T07:07:26.144Z,12.05
2023-05-08T07:09:54.357Z,3.47
2023-05-08T07:12:22.568Z,3.05
2023-05-08T07:14:51.030Z,7.05
2023-05-08T07:17:19.104Z,53.28
2023-05-08T07:19:51.386Z,11.80
2023-05-08T07:22:19.543Z,20.20
2023-05-08T07:24:48.097Z,7.55
2023-05-08T07:27:16.892Z,6.30
2023-05-08T07:29:45.123Z,12.98
2023-05-08T07:32:13.091Z,6.40
2023-05-08T07:34:41.900Z,2.80
2023-05-08T07:37:10.628Z,20.77
2023-05-08T07:39:40.561Z,8.60
2023-05-08T07:42:08.622Z,4.63
2023-05-08T07:44:43.656Z,13.52
2023-05-08T07:47:18.936Z,7.57
2023-05-08T07:49:47.358Z,7.88
2023-05-08T07:52:15.432Z,9.80
2023-05-08T07:54:44.169Z,6.75
2023-05-08T07:57:12.233Z,6.03
2023-05-08T07:59:40.664Z,4.60
2023-05-08T08:02:08.676Z,4.70
2023-05-08T08:04:37.324Z,3.08
2023-05-08T08:07:05.901Z,6.10
2023-05-08T08:09:36.374Z,6.38
2023-05-08T08:12:04.833Z,4.45
2023-05-08T08:14:34.377Z,4.15
2023-05-08T08:17:06.656Z,3.20
2023-05-08T08:19:35.260Z,2.47
2023-05-08T08:22:03.161Z,8.05
2023-05-08T08:24:32.132Z,4.03
2023-05-08T08:27:00.373Z,4.78
2023-05-08T08:29:28.558Z,8.32
2023-05-08T08:31:56.567Z,4.28
2023-05-08T08:34:24.791Z,8.13
2023-05-08T08:36:52.858Z,4.13
2023-05-08T08:39:21.304Z,6.55
2023-05-08T08:41:49.111Z,3.50
2023-05-08T08:44:17.537Z,4.55
2023-05-08T08:46:51.525Z,9.65
2023-05-08T08:49:28.405Z,25.27
2023-05-08T08:52:01.106Z,2.80
2023-05-08T08:54:34.003Z,4.03
2023-05-08T08:57:05.895Z,11.45
2023-05-08T08:59:35.068Z,3.28
2023-05-08T09:02:09.368Z,5.13
2023-05-08T09:04:38.700Z,19.27
2023-05-08T09:07:09.046Z,16.13
2023-05-08T09:09:41.339Z,3.17
2023-05-08T09:12:09.498Z,2.67
2023-05-08T09:14:37.853Z,2.50
2023-05-08T09:17:06.091Z,1.48
2023-05-08T09:19:34.908Z,2.53
2023-05-08T09:22:04.601Z,2.00
2023-05-08T09:24:57.055Z,2.85
2023-05-08T09:27:26.798Z,18.60
2023-05-08T09:30:10.204Z,5.03
2023-05-08T09:32:43.079Z,2.65
2023-05-08T09:35:12.811Z,3.47
2023-05-08T09:37:44.240Z,24.65
2023-05-08T09:40:23.019Z,3.13
2023-05-08T09:42:51.181Z,6.18
2023-05-08T09:45:32.875Z,5.28
2023-05-08T09:48:01.056Z,2.90
2023-05-08T09:50:29.713Z,15.40
2023-05-08T09:52:57.684Z,5.20
2023-05-08T09:55:26.092Z,4.15
2023-05-08T09:57:57.265Z,5.53
2023-05-08T10:00:27.398Z,4.13
2023-05-08T10:02:58.610Z,12.75
2023-05-08T10:05:34.835Z,3.83
2023-05-08T10:08:19.270Z,3.10
2023-05-08T10:10:47.841Z,5.20
2023-05-08T10:13:16.114Z,2.95
2023-05-08T10:15:45.805Z,3.30
2023-05-08T10:18:19.798Z,7.97
2023-05-08T10:20:49.565Z,7.47
2023-05-08T10:23:19.252Z,11.85
2023-05-08T10:25:54.152Z,6.78
2023-05-08T10:33:41.624Z,2.80
2023-05-08T10:36:10.281Z,3.10
2023-05-08T10:38:39.225Z,4.63
2023-05-08T10:41:07.689Z,2.72
2023-05-08T10:43:36.720Z,10.15
2023-05-08T10:46:33.692Z,3.28
2023-05-08T10:49:21.855Z,4.50
2023-05-08T10:52:23.547Z,5.30
2023-05-08T10:54:54.486Z,5.13
2023-05-08T10:57:22.818Z,5.57
2023-05-08T10:59:50.942Z,3.05
2023-05-08T11:02:26.894Z,5.57
2023-05-08T11:04:55.049Z,1.73
2023-05-08T11:07:56.387Z,2.75
2023-05-08T11:10:37.290Z,2.47
2023-05-08T11:13:07.446Z,27.42
2023-05-08T11:15:37.777Z,35.85
2023-05-08T11:18:16.463Z,2.90
2023-05-08T11:20:58.533Z,5.88
2023-05-08T11:23:29.790Z,17.08
2023-05-08T11:26:14.361Z,6.00
2023-05-08T11:28:57.684Z,3.47
2023-05-08T11:31:52.186Z,6.35
2023-05-08T11:34:42.574Z,6.72
2023-05-08T11:37:18.006Z,2.42
2023-05-08T11:42:29.183Z,6.05
2023-05-08T11:45:13.285Z,3.63
2023-05-08T11:47:44.366Z,4.13
2023-05-08T11:50:15.134Z,3.63
2023-05-08T11:52:43.817Z,2.80
2023-05-08T11:55:13.923Z,5.78
2023-05-08T11:57:41.867Z,3.03
2023-05-08T12:00:12.143Z,7.88
2023-05-08T12:02:40.244Z,10.48
2023-05-08T12:05:09.845Z,5.95
2023-05-08T12:07:47.462Z,16.30
2023-05-08T12:10:16.636Z,8.40
2023-05-08T12:12:45.892Z,14.60
2023-05-08T12:15:15.777Z,5.70
2023-05-08T12:17:43.943Z,6.03
2023-05-08T12:20:17.858Z,4.20
2023-05-08T12:22:53.237Z,7.35
2023-05-08T12:25:21.857Z,18.10
2023-05-08T12:27:49.841Z,7.80
2023-05-08T12:30:19.067Z,8.52
2023-05-08T12:32:48.900Z,78.07
2023-05-08T12:35:17.559Z,10.93
2023-05-08T12:37:46.912Z,4.88
2023-05-08T12:40:31.810Z,16.67
2023-05-08T12:43:04.314Z,4.53
2023-05-08T12:45:37.098Z,3.45
2023-05-08T12:48:12.728Z,3.55
2023-05-08T12:50:46.049Z,5.05
2023-05-08T12:53:15.680Z,6.93
2023-05-08T12:55:58.137Z,13.40
2023-05-08T12:58:28.296Z,6.15
2023-05-08T13:01:16.916Z,5.80
2023-05-08T13:03:47.220Z,10.10
2023-05-08T13:06:22.419Z,3.20
2023-05-08T13:08:57.195Z,3.38
2023-05-08T13:11:31.613Z,11.52
2023-05-08T13:13:59.964Z,3.83
2023-05-08T13:16:28.524Z,3.85
2023-05-08T13:18:56.873Z,2.97
2023-05-08T13:21:27.624Z,2.92
2023-05-08T13:23:56.977Z,8.23
2023-05-08T13:26:26.360Z,7.63
2023-05-08T13:28:56.240Z,3.05
2023-05-08T13:31:25.528Z,6.25
2023-05-08T13:33:53.755Z,10.90
2023-05-08T13:36:22.526Z,8.73
2023-05-08T13:38:51.860Z,7.70
2023-05-08T13:41:20.429Z,7.03
2023-05-08T13:43:48.691Z,4.82
2023-05-08T13:46:17.795Z,7.93
2023-05-08T13:48:46.174Z,5.43
2023-05-08T13:51:20.742Z,4.13
2023-05-08T13:53:48.877Z,7.55
2023-05-08T13:56:18.419Z,2.47
2023-05-08T13:58:46.598Z,4.55
2023-05-08T14:01:25.963Z,3.70
2023-05-08T14:03:55.557Z,5.40
2023-05-08T14:06:24.181Z,2.53
2023-05-08T14:08:54.598Z,4.05
2023-05-08T14:11:24.976Z,5.15
2023-05-08T14:13:52.915Z,6.75
2023-05-08T14:16:21.678Z,2.67
2023-05-08T14:18:49.943Z,4.47
2023-05-08T14:21:18.534Z,6.45
2023-05-08T14:23:46.756Z,3.75
2023-05-08T14:26:15.274Z,5.13
2023-05-08T14:28:43.757Z,3.47
2023-05-08T14:31:12.116Z,4.13
2023-05-08T14:33:40.133Z,5.32
2023-05-08T14:36:09.309Z,4.63
2023-05-08T14:38:37.513Z,4.40
2023-05-08T14:41:06.168Z,8.43
2023-05-08T14:43:34.419Z,3.13
2023-05-08T14:46:03.040Z,7.25
2023-05-08T14:48:31.436Z,7.10
2023-05-08T14:51:00.445Z,4.75
2023-05-08T14:53:28.888Z,4.80
2023-05-08T14:56:00.049Z,7.68
2023-05-08T14:58:29.223Z,3.50
2023-05-08T15:00:57.620Z,11.13
2023-05-08T15:03:26.077Z,3.65
2023-05-08T15:05:54.711Z,49.65
2023-05-08T15:08:22.933Z,4.97
2023-05-08T15:10:52.737Z,10.73
2023-05-08T15:13:21.837Z,8.13
2023-05-08T15:15:50.181Z,17.15
2023-05-08T15:18:18.337Z,2.13
2023-05-08T15:20:47.261Z,4.47
2023-05-08T15:23:16.650Z,5.07
2023-05-08T15:25:46.953Z,32.78
2023-05-08T15:28:15.108Z,5.45
2023-05-08T15:30:46.906Z,4.97
2023-05-08T15:33:15.061Z,3.80
2023-05-08T15:35:43.510Z,7.95
2023-05-08T15:38:11.893Z,4.28
2023-05-08T15:40:42.502Z,9.93
2023-05-08T15:43:10.376Z,6.45
2023-05-08T15:45:38.655Z,13.68
2023-05-08T15:48:07.061Z,6.07
2023-05-08T15:50:35.434Z,8.10
2023-05-08T15:53:03.284Z,7.70
2023-05-08T15:55:31.935Z,6.95
2023-05-08T15:58:00.389Z,6.68
2023-05-08T16:00:36.963Z,6.15
2023-05-08T16:03:12.661Z,5.05
2023-05-08T16:05:41.119Z,4.90
2023-05-08T16:08:13.580Z,7.40
2023-05-08T16:10:42.560Z,4.55
2023-05-08T16:13:11.287Z,7.70
2023-05-08T16:15:39.761Z,6.00
2023-05-08T16:18:07.860Z,14.00
2023-05-08T16:20:36.645Z,5.93
2023-05-08T16:23:04.771Z,4.53
2023-05-08T16:25:33.164Z,8.98
2023-05-08T16:28:01.257Z,10.13
2023-05-08T16:30:30.549Z,8.63
2023-05-08T16:32:58.599Z,10.45
2023-05-08T16:35:27.339Z,12.52
2023-05-08T16:37:55.798Z,28.95
2023-05-08T16:40:24.116Z,6.43
2023-05-08T16:42:53.028Z,10.57
2023-05-08T16:45:21.218Z,24.92
2023-05-08T16:47:49.353Z,5.95
2023-05-08T16:50:17.726Z,10.23
2023-05-08T16:52:45.774Z,18.60
2023-05-08T16:55:14.512Z,19.40
2023-05-08T16:57:42.919Z,11.68
2023-05-08T17:00:12.201Z,12.80
2023-05-08T17:02:40.785Z,11.20
2023-05-08T17:05:10.633Z,17.98
2023-05-08T17:07:39.830Z,21.75
2023-05-08T17:10:09.287Z,9.27
2023-05-08T17:12:37.401Z,34.22
2023-05-08T17:15:06.996Z,16.65
2023-05-08T17:17:35.129Z,29.75
2023-05-08T17:20:03.720Z,25.52
2023-05-08T17:22:31.920Z,39.08
2023-05-08T17:25:00.295Z,17.40
2023-05-08T17:27:28.352Z,18.58
2023-05-08T17:29:57.104Z,18.38
2023-05-08T17:32:25.199Z,65.70
2023-05-08T17:34:53.902Z,28.65
2023-05-08T17:37:21.954Z,24.02
2023-05-08T17:39:50.332Z,31.88
2023-05-08T17:42:18.136Z,22.77
2023-05-08T17:44:46.552Z,24.02
2023-05-08T17:47:14.596Z,13.32
2023-05-08T17:49:45.656Z,26.35
2023-05-08T17:52:13.555Z,12.35
2023-05-08T17:54:41.725Z,13.60
2023-05-08T17:57:09.833Z,10.10
2023-05-08T17:59:38.062Z,26.50
2023-05-08T18:02:06.933Z,18.77
2023-05-08T18:04:38.325Z,17.90
2023-05-08T18:07:07.901Z,17.35
2023-05-08T18:09:36.345Z,25.83
2023-05-08T18:12:04.476Z,43.75
2023-05-08T18:14:33.073Z,66.85
2023-05-08T18:17:03.337Z,82.78
2023-05-08T18:19:31.781Z,57.58
2023-05-08T18:21:59.777Z,34.92
2023-05-08T18:24:29.673Z,57.63
2023-05-08T18:26:57.722Z,45.72
2023-05-08T18:29:26.067Z,28.27
2023-05-08T18:31:54.221Z,37.17
2023-05-08T18:34:22.656Z,44.85
2023-05-08T18:36:50.675Z,14.55
2023-05-08T18:39:19.168Z,47.83
2023-05-08T18:41:47.278Z,149.40
2023-05-08T18:44:17.903Z,70.72
2023-05-08T18:46:46.084Z,29.98
2023-05-08T18:49:16.806Z,54.65
2023-05-08T18:51:44.842Z,46.15
2023-05-08T18:54:13.604Z,57.35
2023-05-08T18:56:41.832Z,54.38
2023-05-08T18:59:10.562Z,39.17
2023-05-08T19:01:38.778Z,52.10
2023-05-08T19:04:07.203Z,54.20
2023-05-08T19:06:35.362Z,53.95
2023-05-08T19:09:04.758Z,60.45
2023-05-08T19:11:33.258Z,42.42
2023-05-08T19:14:01.736Z,103.65
2023-05-08T19:16:29.818Z,62.03
2023-05-08T19:18:57.988Z,62.35
2023-05-08T19:21:25.967Z,58.15
2023-05-08T19:23:54.387Z,53.97
2023-05-08T19:26:23.069Z,54.58
2023-05-08T19:28:51.543Z,39.45
2023-05-08T19:31:19.524Z,46.75
2023-05-08T19:33:49.114Z,59.95
2023-05-08T19:36:18.603Z,77.88
2023-05-08T19:38:47.225Z,53.83
2023-05-08T19:41:15.218Z,50.75
2023-05-08T19:43:43.469Z,55.40
2023-05-08T19:46:11.657Z,68.38
2023-05-08T19:48:40.789Z,69.75
2023-05-08T19:51:09.960Z,66.45
2023-05-08T19:53:39.880Z,57.95
2023-05-08T19:56:08.704Z,61.53
2023-05-08T19:58:38.106Z,60.75
2023-05-08T20:01:06.249Z,62.70
2023-05-08T20:03:34.759Z,49.47
2023-05-08T20:06:03.078Z,47.42
2023-05-08T20:08:31.374Z,54.45
2023-05-08T20:11:02.821Z,65.35
2023-05-08T20:13:31.340Z,54.35
2023-05-08T20:15:59.718Z,40.80
2023-05-08T20:18:28.150Z,41.28
2023-05-08T20:20:56.357Z,34.25
2023-05-08T20:23:24.816Z,32.47
2023-05-08T20:25:54.995Z,41.20
2023-05-08T20:28:26.158Z,54.22
2023-05-08T20:30:54.812Z,83.35
2023-05-08T20:33:23.269Z,86.28
2023-05-08T20:35:52.212Z,97.68
2023-05-08T20:38:21.098Z,65.43
2023-05-08T20:40:49.223Z,60.22
2023-05-08T20:43:17.859Z,42.97
2023-05-08T20:45:45.950Z,40.25
2023-05-08T20:48:14.187Z,42.08
2023-05-08T20:50:42.187Z,35.63
2023-05-08T20:53:10.822Z,33.65
2023-05-08T20:55:38.951Z,30.63
2023-05-08T20:58:08.900Z,31.60
2023-05-08T21:00:37.109Z,32.47
2023-05-08T21:03:05.582Z,23.48
2023-05-08T21:05:33.664Z,19.88
2023-05-08T21:08:03.753Z,20.33
2023-05-08T21:10:31.846Z,19.40
2023-05-08T21:13:00.281Z,26.75
2023-05-08T21:15:28.381Z,25.23
2023-05-08T21:17:57.338Z,19.75
2023-05-08T21:20:25.466Z,19.23
2023-05-08T21:22:54.358Z,17.50
2023-05-08T21:25:28.639Z,21.92
2023-05-08T21:27:57.231Z,22.42
2023-05-08T21:30:25.492Z,45.33
2023-05-08T21:32:55.000Z,28.13
2023-05-08T21:35:23.616Z,21.77
2023-05-08T21:37:54.400Z,22.90
2023-05-08T21:40:23.241Z,14.23
2023-05-08T21:42:51.556Z,14.05
2023-05-08T21:45:19.540Z,13.18
2023-05-08T21:47:48.197Z,14.73
2023-05-08T21:50:16.532Z,13.35
2023-05-08T21:52:45.002Z,15.43
2023-05-08T21:55:13.372Z,12.73
2023-05-08T21:57:41.988Z,15.55
2023-05-08T22:00:10.721Z,15.45
2023-05-08T22:02:48.889Z,13.10
2023-05-08T22:05:17.344Z,18.23
2023-05-08T22:07:45.616Z,17.52
2023-05-08T22:10:14.051Z,14.18
2023-05-08T22:12:42.730Z,11.85
2023-05-08T22:15:25.617Z,12.77
2023-05-08T22:20:25.432Z,13.98
2023-05-08T22:22:53.937Z,17.92
2023-05-08T22:25:22.154Z,17.90
2023-05-08T22:27:50.844Z,21.67
2023-05-08T22:30:18.904Z,43.15
2023-05-08T22:32:58.096Z,54.33
2023-05-08T22:35:27.748Z,125.32
2023-05-08T22:37:59.543Z,103.45
2023-05-08T22:40:28.693Z,44.35
2023-05-08T22:42:59.002Z,33.55
2023-05-08T22:45:27.469Z,26.92
2023-05-08T22:47:56.575Z,16.63
2023-05-08T22:50:24.934Z,36.83
2023-05-08T22:52:53.629Z,16.83
2023-05-08T22:55:21.484Z,23.75
2023-05-08T22:57:49.836Z,20.52
2023-05-08T23:00:17.946Z,19.63
2023-05-08T23:02:46.535Z,15.05
2023-05-08T23:05:15.567Z,11.30
2023-05-08T23:07:44.261Z,10.43
2023-05-08T23:10:14.204Z,9.60
2023-05-08T23:12:45.664Z,11.20
2023-05-08T23:15:14.002Z,9.50
2023-05-08T23:17:42.593Z,9.70
2023-05-08T23:20:11.499Z,10.25
2023-05-08T23:22:41.199Z,7.63
2023-05-08T23:25:12.629Z,8.80
2023-05-08T23:27:41.360Z,15.15
2023-05-08T23:30:13.176Z,12.55
2023-05-08T23:32:41.755Z,15.80
2023-05-08T23:35:10.080Z,37.92
2023-05-08T23:37:38.499Z,38.70
2023-05-08T23:40:08.203Z,41.53
2023-05-08T23:42:37.301Z,50.60
2023-05-08T23:45:06.506Z,41.13
2023-05-08T23:47:34.840Z,56.53
2023-05-08T23:50:02.951Z,53.53
2023-05-08T23:52:31.315Z,50.55
2023-05-08T23:54:59.218Z,51.67
2023-05-08T23:57:27.642Z,54.05
2023-05-08T23:59:55.688Z,39.28
